Time;durP1;ratioP1;P1;durP2;ratioP2;P2;SDS_P1;SDS_P2;PMS_P1;PMS_P2;Temp;Humidity;BMP_temperature;BMP_pressure;BME280_temperature;BME280_humidity;BME280_pressure;Samples;Min_cycle;Max_cycle;Signal;HPM_P1;HPM_P2
2023/07/16 00:00:37;;;;;;;3.80;3.20;;;;;;;20.49;100.00;99846.66;108423;1252;70386;-58
2023/07/16 00:03:05;;;;;;;3.10;2.70;;;;;;;20.46;100.00;99847.06;108264;1253;71389;-57
2023/07/16 00:05:32;;;;;;;;;;;;;;;20.43;100.00;99843.73;108357;1253;62420;-58
2023/07/16 00:08:00;;;;;;;3.10;2.80;;;;;;;20.38;100.00;99840.18;108244;1254;59453;-57
2023/07/16 00:10:29;;;;;;;3.40;2.80;;;;;;;20.35;100.00;99841.91;108249;1253;73689;-58
2023/07/16 00:12:56;;;;;;;3.30;2.90;;;;;;;20.30;100.00;99842.83;108328;1253;69626;-57
2023/07/16 00:15:24;;;;;;;3.70;3.00;;;;;;;20.28;100.00;99841.77;108351;1253;72328;-58
2023/07/16 00:17:52;;;;;;;3.30;2.70;;;;;;;20.27;100.00;99843.80;108225;1253;59976;-58
2023/07/16 00:20:20;;;;;;;3.50;2.50;;;;;;;20.26;100.00;99843.99;108094;1253;61250;-58
2023/07/16 00:22:48;;;;;;;2.50;2.30;;;;;;;20.27;100.00;99839.31;108080;1253;73671;-58
2023/07/16 00:25:16;;;;;;;3.10;2.90;;;;;;;20.29;100.00;99845.77;108337;1253;70061;-58
2023/07/16 00:27:43;;;;;;;2.80;2.40;;;;;;;20.29;100.00;99848.62;108388;1253;72609;-58
2023/07/16 00:30:11;;;;;;;;;;;;;;;20.28;100.00;99845.87;108298;1253;59774;-58
2023/07/16 00:32:39;;;;;;;3.40;2.90;;;;;;;20.24;100.00;99846.50;108439;1253;59678;-58
2023/07/16 00:35:07;;;;;;;2.70;2.50;;;;;;;20.19;100.00;99850.30;108434;1253;73604;-58
2023/07/16 00:37:35;;;;;;;3.60;3.10;;;;;;;20.17;100.00;99845.95;108233;1253;69575;-58
2023/07/16 00:40:04;;;;;;;4.20;2.70;;;;;;;20.17;100.00;99843.45;108244;1253;73436;-58
2023/07/16 00:42:31;;;;;;;5.80;3.10;;;;;;;20.16;100.00;99843.89;108307;1254;60215;-58
2023/07/16 00:44:59;;;;;;;3.10;2.40;;;;;;;20.17;100.00;99843.48;108411;1252;59106;-58
2023/07/16 00:47:26;;;;;;;3.00;2.80;;;;;;;20.15;100.00;99839.71;108211;1254;73791;-58
2023/07/16 00:49:54;;;;;;;3.30;2.80;;;;;;;20.14;100.00;99837.89;108003;1252;69791;-58
2023/07/16 00:52:22;;;;;;;3.70;2.70;;;;;;;20.14;100.00;99838.02;108315;1254;72430;-58
2023/07/16 00:54:50;;;;;;;;;;;;;;;20.19;100.00;99840.98;108038;1253;59181;-58
2023/07/16 00:57:17;;;;;;;3.10;2.40;;;;;;;20.21;100.00;99839.97;108198;1253;59781;-59
2023/07/16 00:59:45;;;;;;;3.00;2.70;;;;;;;20.22;100.00;99838.63;108289;1253;74667;-58
2023/07/16 01:02:12;;;;;;;2.60;2.40;;;;;;;20.21;100.00;99836.58;108252;1253;69519;-58
2023/07/16 01:04:40;;;;;;;2.40;2.20;;;;;;;20.21;100.00;99837.09;108399;1253;72827;-58
2023/07/16 01:07:08;;;;;;;2.90;2.60;;;;;;;20.24;100.00;99838.30;108332;1252;60164;-58
2023/07/16 01:09:36;;;;;;;2.80;2.60;;;;;;;20.28;100.00;99838.17;108094;1252;59829;-58
2023/07/16 01:12:05;;;;;;;3.70;3.00;;;;;;;20.31;100.00;99837.20;107960;1254;72793;-58
2023/07/16 01:14:32;;;;;;;3.70;2.90;;;;;;;20.36;100.00;99837.51;108358;1253;70025;-58
2023/07/16 01:17:06;;;;;;;4.70;2.70;;;;;;;20.40;100.00;99837.52;108231;1253;73416;-58
2023/07/16 01:19:34;;;;;;;3.10;2.90;;;;;;;20.44;100.00;99841.00;108161;1254;60816;-58
2023/07/16 01:22:24;;;;;;;3.30;2.90;;;;;;;20.46;100.00;99836.89;108398;1253;59654;-58
2023/07/16 01:25:09;;;;;;;5.20;2.90;;;;;;;20.46;100.00;99839.20;108163;1254;74534;-58
2023/07/16 01:27:52;;;;;;;3.00;2.70;;;;;;;20.48;100.00;99838.92;108077;1251;69786;-58
2023/07/16 01:30:20;;;;;;;3.00;2.60;;;;;;;20.47;100.00;99839.53;108437;1251;72896;-58
2023/07/16 01:32:48;;;;;;;3.00;2.70;;;;;;;20.46;100.00;99838.71;108161;1252;59752;-59
2023/07/16 01:35:16;;;;;;;3.10;2.70;;;;;;;20.47;100.00;99840.42;108529;1252;61222;-59
2023/07/16 01:37:43;;;;;;;2.70;2.50;;;;;;;20.46;100.00;99840.79;108304;1252;73672;-58
2023/07/16 01:40:11;;;;;;;;;;;;;;;20.47;100.00;99842.71;108410;1251;69161;-58
2023/07/16 01:42:39;;;;;;;;;;;;;;;20.45;100.00;99844.13;108056;1255;71910;-58
2023/07/16 01:45:07;;;;;;;2.50;2.10;;;;;;;20.43;100.00;99845.34;108321;1252;59892;-58
2023/07/16 01:47:37;;;;;;;7.00;2.40;;;;;;;20.43;100.00;99843.56;108357;1252;59930;-58
2023/07/16 01:50:06;;;;;;;2.50;2.30;;;;;;;20.41;100.00;99842.95;108288;1251;74562;-55
2023/07/16 01:52:34;;;;;;;5.30;2.50;;;;;;;20.41;100.00;99839.80;108512;1253;68174;-58
2023/07/16 01:55:01;;;;;;;3.10;2.40;;;;;;;20.40;100.00;99839.52;108567;1252;72866;-57
2023/07/16 01:57:30;;;;;;;2.60;2.40;;;;;;;20.39;100.00;99837.13;108538;1250;60769;-58
2023/07/16 01:59:58;;;;;;;;;;;;;;;20.39;100.00;99839.79;108400;1250;59693;-57
2023/07/16 02:02:26;;;;;;;4.50;2.90;;;;;;;20.36;100.00;99840.20;108432;1256;73600;-58
2023/07/16 02:04:54;;;;;;;8.20;2.40;;;;;;;20.32;100.00;99842.64;108456;1251;69074;-57
2023/07/16 02:07:23;;;;;;;4.00;2.50;;;;;;;20.30;100.00;99838.35;108375;1253;72017;-58
2023/07/16 02:09:50;;;;;;;3.30;2.90;;;;;;;20.28;100.00;99836.74;108391;1252;60000;-58
2023/07/16 02:12:18;;;;;;;5.30;3.10;;;;;;;20.26;100.00;99834.95;108575;1252;59832;-57
2023/07/16 02:14:46;;;;;;;3.10;2.40;;;;;;;20.22;100.00;99838.08;108511;1251;73672;-57
2023/07/16 02:17:13;;;;;;;;;;;;;;;20.19;100.00;99838.37;108448;1250;69532;-58
2023/07/16 02:19:41;;;;;;;2.60;2.40;;;;;;;20.16;100.00;99842.31;108307;1250;72915;-57
2023/07/16 02:22:10;;;;;;;2.80;2.50;;;;;;;20.13;100.00;99846.27;108392;1253;60166;-58
2023/07/16 02:24:37;;;;;;;3.30;2.40;;;;;;;20.14;100.00;99847.98;108341;1250;59722;-58
2023/07/16 02:27:05;;;;;;;;;;;;;;;20.15;100.00;99844.95;108377;1252;74599;-57
2023/07/16 02:29:33;;;;;;;3.40;2.70;;;;;;;20.17;100.00;99845.98;108332;1250;69219;-57
2023/07/16 02:32:01;;;;;;;3.70;2.60;;;;;;;20.16;100.00;99845.14;108405;1251;72996;-58
2023/07/16 02:34:30;;;;;;;2.70;2.50;;;;;;;20.17;100.00;99844.95;108533;1250;58663;-58
2023/07/16 02:36:58;;;;;;;3.00;2.60;;;;;;;20.19;100.00;99841.41;108504;1251;60900;-58
2023/07/16 02:39:27;;;;;;;5.80;2.60;;;;;;;20.21;100.00;99840.29;108327;1251;73673;-58
2023/07/16 02:41:55;;;;;;;2.50;2.30;;;;;;;20.26;100.00;99843.35;108451;1251;69241;-58
2023/07/16 02:44:24;;;;;;;2.90;2.40;;;;;;;20.29;100.00;99842.77;108590;1253;72362;-60
2023/07/16 02:46:52;;;;;;;2.80;2.40;;;;;;;20.30;100.00;99844.80;108500;1253;60104;-57
2023/07/16 02:49:21;;;;;;;2.50;2.20;;;;;;;20.30;100.00;99844.94;108505;1251;59772;-57
2023/07/16 02:51:48;;;;;;;3.40;2.70;;;;;;;20.31;100.00;99844.51;108418;1251;77074;-58
2023/07/16 02:54:16;;;;;;;2.50;2.30;;;;;;;20.33;100.00;99848.67;108491;1251;69258;-55
2023/07/16 02:56:44;;;;;;;2.50;2.20;;;;;;;20.34;100.00;99848.88;108493;1251;72292;-58
2023/07/16 02:59:11;;;;;;;2.50;2.30;;;;;;;20.36;100.00;99847.84;108508;1251;59758;-57
2023/07/16 03:01:39;;;;;;;;;;;;;;;20.38;100.00;99848.77;108340;1251;59185;-58
2023/07/16 03:04:07;;;;;;;;;;;;;;;20.35;100.00;99849.55;108457;1251;73623;-58
2023/07/16 03:06:34;;;;;;;2.80;2.60;;;;;;;20.30;100.00;99848.02;108496;1252;69600;-58
2023/07/16 03:09:02;;;;;;;3.20;2.20;;;;;;;20.27;100.00;99852.17;108500;1251;73384;-58
2023/07/16 03:11:30;;;;;;;2.30;1.90;;;;;;;20.27;100.00;99852.34;108532;1251;60832;-59
2023/07/16 03:13:58;;;;;;;9.00;4.40;;;;;;;20.27;100.00;99849.98;108526;1251;59668;-58
2023/07/16 03:16:26;;;;;;;14.60;4.50;;;;;;;20.27;100.00;99850.90;108556;1251;75325;-58
2023/07/16 03:18:54;;;;;;;7.70;4.00;;;;;;;20.26;100.00;99855.04;108514;1253;70473;-58
2023/07/16 03:21:22;;;;;;;9.50;4.40;;;;;;;20.26;100.00;99854.37;108436;1251;72855;-57
2023/07/16 03:23:49;;;;;;;10.70;3.90;;;;;;;20.27;100.00;99856.04;108259;1251;60645;-58
2023/07/16 03:26:17;;;;;;;11.50;4.20;;;;;;;20.28;100.00;99854.95;108504;1251;59681;-58
2023/07/16 03:28:45;;;;;;;7.60;4.00;;;;;;;20.27;100.00;99856.38;108328;1251;73078;-58
2023/07/16 03:31:13;;;;;;;9.00;4.20;;;;;;;20.29;100.00;99856.98;108625;1252;69193;-58
2023/07/16 03:33:42;;;;;;;9.70;4.30;;;;;;;20.31;100.00;99857.15;108443;1253;72765;-57
2023/07/16 03:36:09;;;;;;;;;;;;;;;20.33;100.00;99858.02;108431;1250;61423;-57
2023/07/16 03:38:37;;;;;;;21.00;6.80;;;;;;;20.35;100.00;99863.23;108421;1253;59578;-59
2023/07/16 03:41:04;;;;;;;16.90;6.50;;;;;;;20.39;100.00;99866.84;108233;1253;73599;-59
2023/07/16 03:43:32;;;;;;;;;;;;;;;20.41;100.00;99869.67;108142;1251;70266;-58
2023/07/16 03:46:14;;;;;;;21.10;6.90;;;;;;;20.43;100.00;99868.45;108313;1250;72399;-58
2023/07/16 03:48:43;;;;;;;24.30;8.20;;;;;;;20.46;100.00;99866.85;108253;1252;61418;-59
2023/07/16 03:51:10;;;;;;;22.10;8.10;;;;;;;20.51;100.00;99866.20;108210;1253;60648;-58
2023/07/16 03:53:38;;;;;;;21.30;7.60;;;;;;;20.55;100.00;99869.99;108449;1251;72639;-59
2023/07/16 03:56:06;;;;;;;13.60;5.60;;;;;;;20.60;100.00;99872.64;108340;1255;69477;-59
2023/07/16 03:58:35;;;;;;;9.30;4.40;;;;;;;20.66;100.00;99870.98;108376;1253;72340;-59
2023/07/16 04:01:02;;;;;;;5.90;3.50;;;;;;;20.73;100.00;99872.12;108369;1251;62402;-59
2023/07/16 04:03:30;;;;;;;;;;;;;;;20.82;100.00;99872.29;108486;1252;61245;-59
2023/07/16 04:06:11;;;;;;;5.40;3.50;;;;;;;20.90;100.00;99873.45;108521;1253;73589;-59
2023/07/16 04:08:39;;;;;;;4.20;2.80;;;;;;;20.96;100.00;99870.21;108472;1253;70216;-59
2023/07/16 04:11:07;;;;;;;5.90;3.20;;;;;;;21.06;100.00;99868.71;108574;1251;72117;-59
2023/07/16 04:13:34;;;;;;;3.20;2.90;;;;;;;21.15;100.00;99870.81;108535;1253;61385;-59
2023/07/16 04:16:03;;;;;;;3.40;3.10;;;;;;;21.23;100.00;99869.25;108523;1251;59683;-58
2023/07/16 04:18:31;;;;;;;2.70;2.50;;;;;;;21.33;100.00;99868.48;108549;1251;73680;-59
2023/07/16 04:20:58;;;;;;;2.90;2.60;;;;;;;21.42;100.00;99871.07;108516;1251;69212;-59
2023/07/16 04:23:26;;;;;;;3.70;2.70;;;;;;;21.51;100.00;99871.20;108487;1253;72454;-60
2023/07/16 04:25:55;;;;;;;2.90;2.50;;;;;;;21.59;100.00;99876.95;108281;1253;61415;-59
2023/07/16 04:28:22;;;;;;;12.00;3.90;;;;;;;21.67;100.00;99875.77;108375;1253;58841;-59
2023/07/16 04:30:50;;;;;;;7.20;3.10;;;;;;;21.73;100.00;99876.61;107998;1253;74044;-59
2023/07/16 04:33:19;;;;;;;8.00;3.70;;;;;;;21.82;100.00;99881.27;108344;1254;69158;-56
2023/07/16 04:35:47;;;;;;;14.00;5.00;;;;;;;21.91;100.00;99883.90;108276;1253;71680;-57
2023/07/16 04:38:14;;;;;;;;;;;;;;;21.96;100.00;99881.44;108302;1253;61434;-56
2023/07/16 04:40:43;;;;;;;;;;;;;;;21.99;100.00;99883.20;108235;1253;59499;-57
2023/07/16 04:43:10;;;;;;;31.50;8.10;;;;;;;22.01;100.00;99881.59;108179;1253;73741;-56
2023/07/16 04:45:39;;;;;;;44.00;11.00;;;;;;;22.04;100.00;99885.76;108453;1253;69079;-57
2023/07/16 04:48:07;;;;;;;35.00;8.50;;;;;;;22.09;100.00;99890.66;108481;1253;71372;-57
2023/07/16 04:50:35;;;;;;;;;;;;;;;22.13;100.00;99893.59;108244;1253;60975;-57
2023/07/16 04:53:03;;;;;;;;;;;;;;;22.17;100.00;99893.41;108160;1253;59961;-57
2023/07/16 04:55:37;;;;;;;41.50;9.80;;;;;;;22.20;100.00;99892.60;108212;1253;72864;-57
2023/07/16 04:58:05;;;;;;;57.30;12.50;;;;;;;22.24;100.00;99893.85;108228;1253;69533;-57
2023/07/16 05:00:33;;;;;;;10.60;5.10;;;;;;;22.32;100.00;99893.73;108490;1253;71155;-58
2023/07/16 05:03:00;;;;;;;30.40;7.40;;;;;;;22.40;100.00;99896.41;108382;1253;61463;-56
2023/07/16 05:05:28;;;;;;;25.80;8.30;;;;;;;22.50;100.00;99889.12;108253;1254;60694;-57
2023/07/16 05:07:56;;;;;;;7.60;3.70;;;;;;;22.60;100.00;99893.40;108407;1253;74067;-56
2023/07/16 05:10:24;;;;;;;41.20;8.70;;;;;;;22.68;100.00;99894.27;108154;1253;69222;-56
2023/07/16 05:12:51;;;;;;;38.30;8.50;;;;;;;22.76;100.00;99897.70;108175;1253;73064;-56
2023/07/16 05:15:19;;;;;;;19.30;6.20;;;;;;;22.82;100.00;99899.45;108410;1253;61809;-56
2023/07/16 05:17:47;;;;;;;7.60;3.20;;;;;;;22.88;100.00;99902.17;108451;1253;58808;-56
2023/07/16 05:20:15;;;;;;;15.60;4.70;;;;;;;22.94;100.00;99899.45;108349;1253;73654;-56
2023/07/16 05:22:43;;;;;;;11.90;3.70;;;;;;;23.02;100.00;99903.97;108219;1253;68442;-58
2023/07/16 05:25:11;;;;;;;5.90;2.40;;;;;;;23.09;100.00;99901.89;108205;1253;72316;-56
2023/07/16 05:27:39;;;;;;;10.90;3.50;;;;;;;23.19;100.00;99900.69;108465;1253;62320;-57
2023/07/16 05:30:07;;;;;;;13.20;3.90;;;;;;;23.26;100.00;99900.17;108469;1251;59126;-57
2023/07/16 05:32:35;;;;;;;8.80;3.00;;;;;;;23.37;100.00;99904.73;108581;1250;73614;-56
2023/07/16 05:35:04;;;;;;;3.90;2.50;;;;;;;23.41;100.00;99903.77;108520;1250;69628;-56
2023/07/16 05:37:32;;;;;;;2.00;1.90;;;;;;;23.50;100.00;99903.50;108459;1253;72516;-56
2023/07/16 05:39:59;;;;;;;3.30;2.40;;;;;;;23.62;100.00;99907.98;108470;1251;60736;-56
2023/07/16 05:42:27;;;;;;;3.20;2.20;;;;;;;23.71;100.00;99907.75;108451;1252;59751;-56
2023/07/16 05:44:55;;;;;;;;;;;;;;;23.84;99.74;99908.23;108353;1252;73992;-56
2023/07/16 05:47:23;;;;;;;2.10;1.80;;;;;;;23.94;99.13;99906.95;108350;1256;70207;-56
2023/07/16 05:49:51;;;;;;;;;;;;;;;24.05;97.66;99911.80;108409;1253;73360;-56
2023/07/16 05:52:18;;;;;;;;;;;;;;;24.14;89.66;99912.36;108504;1251;59936;-56
2023/07/16 05:54:46;;;;;;;2.30;1.60;;;;;;;24.21;92.33;99913.89;108320;1253;59715;-56
2023/07/16 05:57:14;;;;;;;2.60;1.90;;;;;;;24.24;89.89;99913.88;108561;1251;73048;-56
2023/07/16 05:59:42;;;;;;;2.90;2.00;;;;;;;24.32;90.13;99915.11;108571;1252;69217;-56
2023/07/16 06:02:09;;;;;;;1.60;1.50;;;;;;;24.40;88.80;99908.27;108558;1252;71882;-56
2023/07/16 06:04:37;;;;;;;;;;;;;;;24.50;84.74;99912.16;108389;1253;60319;-56
2023/07/16 06:07:05;;;;;;;4.00;1.80;;;;;;;24.58;82.74;99906.96;108595;1250;59732;-56
2023/07/16 06:09:33;;;;;;;3.50;1.60;;;;;;;24.65;80.75;99905.64;108536;1250;74170;-56
2023/07/16 06:12:00;;;;;;;1.90;1.30;;;;;;;24.72;76.75;99903.27;108555;1251;68212;-56
2023/07/16 06:14:28;;;;;;;2.00;1.60;;;;;;;24.80;72.29;99902.24;108497;1251;73189;-56
2023/07/16 06:16:56;;;;;;;1.60;1.50;;;;;;;24.89;70.09;99901.21;108568;1252;59815;-56
2023/07/16 06:19:24;;;;;;;3.20;1.40;;;;;;;24.95;69.55;99906.18;108516;1251;59667;-56
2023/07/16 06:21:51;;;;;;;1.60;1.40;;;;;;;25.03;68.43;99902.50;108523;1253;73679;-56
2023/07/16 06:24:19;;;;;;;1.30;1.20;;;;;;;25.11;66.24;99904.59;108546;1250;69298;-56
2023/07/16 06:26:47;;;;;;;2.40;1.50;;;;;;;25.19;65.07;99903.23;108452;1253;72463;-56
2023/07/16 06:29:15;;;;;;;1.30;1.00;;;;;;;25.25;59.48;99901.73;108328;1251;59780;-56
2023/07/16 06:31:43;;;;;;;2.10;1.50;;;;;;;25.32;60.70;99898.92;108331;1250;60671;-56
2023/07/16 06:34:11;;;;;;;3.00;1.60;;;;;;;25.39;59.24;99899.06;108416;1250;73563;-56
2023/07/16 06:36:39;;;;;;;1.30;1.20;;;;;;;25.47;58.44;99893.95;108472;1250;68156;-57
2023/07/16 06:39:07;;;;;;;3.30;2.00;;;;;;;25.58;60.89;99893.73;108551;1253;72869;-57
2023/07/16 06:41:34;;;;;;;1.30;1.20;;;;;;;25.65;61.78;99893.28;108401;1251;59767;-57
2023/07/16 06:46:09;;;;;;;1.50;1.40;;;;;;;25.40;61.98;99895.08;101341;1302;601782;-56
2023/07/16 06:48:37;;;;;;;2.30;1.40;;;;;;;25.74;60.01;99897.23;103732;1277;59779;-56
2023/07/16 06:51:04;;;;;;;;;;;;;;;25.82;59.50;99901.02;103556;1276;59395;-57
2023/07/16 06:53:32;;;;;;;;;;;;;;;25.87;59.55;99903.17;103947;1266;72039;-57
2023/07/16 06:56:00;;;;;;;1.70;1.60;;;;;;;25.91;55.85;99901.02;103970;1268;69178;-56
2023/07/16 06:58:33;;;;;;;1.50;1.40;;;;;;;25.95;57.55;99900.27;103931;1276;73355;-57
2023/07/16 07:01:01;;;;;;;2.40;1.40;;;;;;;26.03;56.00;99898.85;103819;1270;59474;-57
2023/07/16 07:03:29;;;;;;;2.00;1.60;;;;;;;26.08;55.39;99899.98;103892;1260;60713;-57
2023/07/16 07:05:56;;;;;;;2.50;1.80;;;;;;;26.13;55.53;99900.55;103896;1265;72501;-56
2023/07/16 07:08:24;;;;;;;4.50;1.70;;;;;;;26.16;55.16;99901.98;104011;1270;69255;-57
2023/07/16 07:10:52;;;;;;;;;;;;;;;26.15;55.79;99899.61;103944;1264;72733;-57
2023/07/16 07:13:19;;;;;;;1.80;1.70;;;;;;;26.19;54.85;99896.37;103901;1276;61474;-56
2023/07/16 07:15:47;;;;;;;;;;;;;;;26.23;53.05;99892.67;103853;1265;59821;-57
2023/07/16 07:18:15;;;;;;;1.80;1.70;;;;;;;26.30;52.98;99892.02;103808;1278;72783;-56
2023/07/16 07:20:42;;;;;;;;;;;;;;;26.30;51.11;99892.09;103924;1271;69264;-56
2023/07/16 07:23:10;;;;;;;3.50;1.40;;;;;;;26.31;49.17;99886.83;103757;1265;72526;-55
2023/07/16 07:25:38;;;;;;;1.90;1.40;;;;;;;26.36;52.64;99886.67;104438;1254;59817;-56
2023/07/16 08:30:56;;;;;;;2.00;1.80;;;;;;;28.05;49.57;99861.34;101174;1294;601763;-57
2023/07/16 08:33:24;;;;;;;5.50;2.10;;;;;;;28.04;48.83;99861.65;106560;1268;59789;-59
2023/07/16 08:35:52;;;;;;;1.80;1.70;;;;;;;28.10;50.80;99856.76;106478;1266;59753;-58
2023/07/16 08:38:20;;;;;;;;;;;;;;;28.22;50.62;99854.55;104146;1266;71240;-58
2023/07/16 08:40:48;;;;;;;3.50;1.60;;;;;;;28.30;50.00;99849.05;103319;1271;70914;-57
2023/07/16 08:43:17;;;;;;;2.20;2.00;;;;;;;28.35;51.01;99855.17;103234;1272;72492;-57
2023/07/16 08:45:45;;;;;;;4.30;1.60;;;;;;;28.27;47.30;99858.77;103719;1264;180786;-58
2023/07/16 08:48:13;;;;;;;2.40;2.20;;;;;;;28.15;46.33;99855.02;103772;1265;59653;-58
2023/07/16 08:50:41;;;;;;;;;;;;;;;28.06;46.06;99856.73;104062;1265;71808;-55
2023/07/16 08:53:09;;;;;;;2.80;1.80;;;;;;;28.02;48.14;99857.03;104047;1263;69135;-55
2023/07/16 08:55:38;;;;;;;1.70;1.60;;;;;;;28.08;48.48;99856.84;104110;1262;72368;-56
2023/07/16 08:58:06;;;;;;;5.00;1.70;;;;;;;28.21;49.66;99849.59;104000;1260;60193;-55
2023/07/16 09:00:33;;;;;;;2.40;2.20;;;;;;;28.37;47.86;99840.54;104079;1270;59855;-56
2023/07/16 09:03:01;;;;;;;2.20;1.90;;;;;;;28.47;48.11;99842.16;104197;1262;73318;-56
2023/07/16 09:05:29;;;;;;;2.00;1.80;;;;;;;28.54;49.56;99842.64;104240;1260;69257;-55
2023/07/16 09:08:07;;;;;;;2.60;2.20;;;;;;;28.65;50.68;99845.46;103962;1270;72279;-55
2023/07/16 09:10:35;;;;;;;2.40;2.20;;;;;;;28.76;49.32;99843.67;103969;1257;60071;-56
2023/07/16 09:13:03;;;;;;;6.90;1.90;;;;;;;28.89;49.75;99844.52;103995;1262;59801;-58
2023/07/16 09:15:31;;;;;;;;;;;;;;;28.99;46.55;99838.30;104285;1260;73254;-59
2023/07/16 09:17:59;;;;;;;2.10;1.90;;;;;;;28.99;46.61;99834.10;104296;1262;69192;-58
2023/07/16 09:20:33;;;;;;;2.00;1.80;;;;;;;28.95;44.85;99831.02;104558;1258;72489;-58
2023/07/16 09:23:01;;;;;;;3.50;2.60;;;;;;;28.97;46.69;99834.94;104305;1262;59817;-56
2023/07/16 09:25:29;;;;;;;;;;;;;;;28.90;43.64;99831.16;104339;1255;60707;-57
2023/07/16 09:28:02;;;;;;;2.20;1.90;;;;;;;28.87;45.94;99836.05;104344;1258;73246;-56
2023/07/16 09:30:32;;;;;;;1.80;1.70;;;;;;;28.77;46.64;99833.61;104438;1268;69123;-57
2023/07/16 09:33:19;;;;;;;3.70;2.00;;;;;;;28.69;47.67;99832.35;104427;1256;73440;-56
2023/07/16 09:35:48;;;;;;;2.20;2.00;;;;;;;28.73;45.41;99830.52;104293;1261;60441;-57
2023/07/16 09:38:17;;;;;;;4.10;2.50;;;;;;;28.80;45.53;99824.13;104409;1258;60516;-58
2023/07/16 09:40:45;;;;;;;4.10;2.40;;;;;;;28.89;46.01;99823.59;104404;1253;71754;-57
2023/07/16 09:43:13;;;;;;;2.60;1.90;;;;;;;29.01;46.31;99823.02;108027;1253;70076;-58
2023/07/16 09:45:42;;;;;;;2.60;2.40;;;;;;;29.12;46.53;99827.42;107195;1255;72619;-58
2023/07/16 09:48:09;;;;;;;2.50;2.30;;;;;;;29.15;44.87;99827.08;104670;1259;59841;-57
2023/07/16 09:50:38;;;;;;;2.40;2.20;;;;;;;29.06;44.24;99828.19;104569;1260;60140;-57
2023/07/16 09:53:07;;;;;;;2.20;2.00;;;;;;;28.97;43.43;99829.18;104578;1261;72925;-58
2023/07/16 09:55:35;;;;;;;3.40;2.40;;;;;;;28.92;43.75;99824.07;104783;1258;69092;-58
2023/07/16 09:58:08;;;;;;;4.00;2.80;;;;;;;29.00;43.63;99824.12;104740;1253;72552;-57
2023/07/16 10:00:36;;;;;;;4.00;2.40;;;;;;;29.07;41.75;99820.21;104372;1258;59799;-57
2023/07/16 10:03:05;;;;;;;;;;;;;;;29.08;43.71;99825.52;104554;1253;60146;-57
2023/07/16 10:05:37;;;;;;;2.80;2.40;;;;;;;29.06;43.10;99833.71;104383;1258;72803;-57
2023/07/16 10:08:17;;;;;;;2.60;2.40;;;;;;;29.02;43.48;99829.86;104336;1272;69054;-57
2023/07/16 10:10:51;;;;;;;6.00;3.50;;;;;;;29.04;42.69;99828.35;104230;1256;72371;-57
2023/07/16 10:13:22;;;;;;;5.10;2.60;;;;;;;29.07;43.03;99817.16;104369;1261;59893;-56
2023/07/16 10:15:52;;;;;;;2.60;2.40;;;;;;;29.18;42.30;99815.20;104412;1261;60374;-56
2023/07/16 10:18:24;;;;;;;2.20;2.00;;;;;;;29.30;43.98;99813.92;104390;1267;73237;-57
2023/07/16 10:20:52;;;;;;;2.80;2.20;;;;;;;29.46;45.66;99816.27;104396;1262;70091;-57
2023/07/16 10:23:20;;;;;;;;;;;;;;;29.57;44.63;99812.11;104252;1262;72437;-57
2023/07/16 10:26:05;;;;;;;3.50;2.50;;;;;;;29.61;42.59;99808.04;104302;1270;60156;-57
2023/07/16 10:28:34;;;;;;;2.20;2.00;;;;;;;29.64;42.81;99803.33;104333;1253;59783;-57
2023/07/16 10:31:01;;;;;;;3.50;2.40;;;;;;;29.68;43.93;99798.48;104368;1267;72766;-57
2023/07/16 10:33:29;;;;;;;5.50;2.20;;;;;;;29.78;44.35;99799.85;104544;1258;69189;-57
2023/07/16 10:36:00;;;;;;;2.30;2.00;;;;;;;29.89;44.74;99808.09;104320;1268;72799;-56
2023/07/16 10:38:28;;;;;;;2.70;2.40;;;;;;;29.96;43.68;99808.48;106418;1254;60209;-57
2023/07/16 10:40:56;;;;;;;2.60;2.30;;;;;;;29.94;40.94;99806.20;104408;1259;59739;-57
2023/07/16 10:43:25;;;;;;;3.10;2.40;;;;;;;29.90;41.00;99798.39;104379;1259;72448;-58
2023/07/16 10:45:53;;;;;;;2.50;2.30;;;;;;;29.94;41.50;99797.52;104309;1253;69082;-57
2023/07/16 10:48:25;;;;;;;5.00;2.80;;;;;;;29.88;41.96;99796.80;104331;1263;72879;-57
2023/07/16 10:50:55;;;;;;;2.80;2.60;;;;;;;29.81;40.28;99793.65;104541;1261;60760;-57
2023/07/16 10:53:23;;;;;;;2.60;2.40;;;;;;;29.78;41.23;99793.14;104487;1258;59738;-56
2023/07/16 10:55:51;;;;;;;2.80;2.60;;;;;;;29.78;40.74;99791.30;104372;1254;72922;-56
2023/07/16 10:58:19;;;;;;;3.80;2.60;;;;;;;29.83;42.56;99796.88;104344;1255;69185;-56
2023/07/16 11:00:47;;;;;;;3.00;2.50;;;;;;;29.81;40.42;99797.13;104436;1268;72317;-57
2023/07/16 11:03:16;;;;;;;2.50;2.30;;;;;;;29.75;41.92;99799.55;104500;1259;60841;-57
2023/07/16 11:05:46;;;;;;;2.90;2.60;;;;;;;29.73;41.26;99797.38;104328;1258;59763;-58
2023/07/16 11:08:26;;;;;;;3.40;2.40;;;;;;;29.76;42.34;99797.23;104557;1260;72966;-57
2023/07/16 11:10:57;;;;;;;3.10;2.80;;;;;;;29.83;41.45;99793.62;104419;1265;69164;-58
2023/07/16 11:13:29;;;;;;;3.50;2.50;;;;;;;29.86;40.19;99789.91;104658;1259;72876;-58
2023/07/16 11:15:56;;;;;;;3.80;2.10;;;;;;;29.87;41.30;99789.38;104647;1254;61517;-57
2023/07/16 11:18:24;;;;;;;3.60;2.60;;;;;;;29.95;40.36;99786.02;104332;1260;61115;-56
2023/07/16 11:20:52;;;;;;;2.60;2.40;;;;;;;29.99;40.90;99783.54;104417;1259;73732;-56
2023/07/16 11:23:20;;;;;;;2.30;2.20;;;;;;;30.06;42.59;99783.92;104303;1264;69350;-56
2023/07/16 11:25:48;;;;;;;;;;;;;;;30.17;40.92;99783.01;104395;1259;72445;-57
2023/07/16 11:28:16;;;;;;;2.30;2.10;;;;;;;30.19;40.97;99778.61;104450;1260;60704;-57
2023/07/16 11:30:44;;;;;;;2.70;2.50;;;;;;;30.20;41.07;99777.46;104108;1263;60128;-56
2023/07/16 11:33:12;;;;;;;3.10;2.60;;;;;;;30.21;42.44;99778.30;104290;1262;72909;-56
2023/07/16 11:35:40;;;;;;;2.50;2.30;;;;;;;30.22;40.62;99778.77;104473;1259;69226;-56
2023/07/16 11:38:08;;;;;;;;;;;;;;;30.15;40.40;99773.44;104372;1261;72247;-56
2023/07/16 11:40:36;;;;;;;2.20;2.00;;;;;;;30.12;41.27;99777.65;104330;1262;60219;-57
2023/07/16 11:43:10;;;;;;;3.40;2.40;;;;;;;30.08;43.74;99773.42;104822;1259;59854;-57
2023/07/16 11:45:38;;;;;;;2.40;2.20;;;;;;;30.10;45.78;99773.59;108001;1254;72931;-57
2023/07/16 11:48:06;;;;;;;5.00;2.20;;;;;;;30.12;44.85;99772.90;105830;1260;69551;-57
2023/07/16 11:50:34;;;;;;;2.50;2.30;;;;;;;30.18;45.26;99769.88;104643;1257;73352;-57
2023/07/16 11:53:02;;;;;;;;;;;;;;;30.29;44.80;99769.16;104490;1261;59774;-57
2023/07/16 11:55:29;;;;;;;2.60;2.40;;;;;;;30.39;42.41;99766.87;104377;1255;62035;-57
2023/07/16 11:57:59;;;;;;;2.70;2.50;;;;;;;30.48;43.22;99766.17;104506;1261;72870;-56
2023/07/16 12:00:27;;;;;;;4.20;2.40;;;;;;;30.54;42.49;99765.02;104501;1260;69249;-56
2023/07/16 12:02:55;;;;;;;3.60;2.60;;;;;;;30.56;40.55;99764.25;104418;1268;72832;-56
2023/07/16 12:05:24;;;;;;;4.20;2.80;;;;;;;30.51;41.35;99757.30;104289;1260;59815;-57
2023/07/16 12:08:14;;;;;;;4.10;2.60;;;;;;;30.53;42.97;99760.80;104329;1259;59739;-57
2023/07/16 12:10:42;;;;;;;4.50;2.80;;;;;;;30.51;41.48;99760.31;104286;1254;72818;-56
2023/07/16 12:13:10;;;;;;;3.00;2.50;;;;;;;30.34;40.26;99756.29;104288;1263;68152;-56
2023/07/16 12:15:37;;;;;;;2.50;2.30;;;;;;;30.26;40.48;99751.60;104439;1262;72964;-57
2023/07/16 12:18:05;;;;;;;2.80;2.60;;;;;;;30.28;41.38;99757.58;104314;1254;59835;-56
2023/07/16 12:20:34;;;;;;;2.60;2.40;;;;;;;30.37;41.07;99749.40;104366;1254;59972;-56
2023/07/16 12:23:02;;;;;;;2.50;2.30;;;;;;;30.50;40.55;99749.84;104363;1269;74817;-56
2023/07/16 12:25:31;;;;;;;2.70;2.50;;;;;;;30.62;40.05;99753.13;104576;1260;69651;-60
2023/07/16 12:27:59;;;;;;;;;;;;;;;30.70;40.73;99749.48;104523;1256;72340;-56
2023/07/16 12:30:27;;;;;;;4.50;2.50;;;;;;;30.72;39.61;99741.86;104701;1253;60181;-57
2023/07/16 12:32:54;;;;;;;;;;;;;;;30.75;41.46;99742.34;104389;1260;60192;-57
2023/07/16 12:35:22;;;;;;;2.70;2.40;;;;;;;30.83;41.52;99739.80;104268;1272;71542;-59
2023/07/16 12:37:50;;;;;;;3.10;2.50;;;;;;;30.90;42.07;99740.42;104451;1260;69182;-56
2023/07/16 12:40:18;;;;;;;3.00;2.70;;;;;;;31.03;40.22;99736.42;105490;1254;72448;-57